Time;durP1;ratioP1;P1;durP2;ratioP2;P2;SDS_P1;SDS_P2;PMS_P1;PMS_P2;Temp;Humidity;BMP_temperature;BMP_pressure;BME280_temperature;BME280_humidity;BME280_pressure;Samples;Min_cycle;Max_cycle;Signal;HPM_P1;HPM_P2
2023/12/31 00:02:04;;;;;;;4.00;2.17;;;;;;;-146.27;84.06;32468.06;5063866;28;20028;-72
2023/12/31 00:04:29;;;;;;;4.47;1.85;;;;;;;-146.27;83.75;32398.63;5060381;28;20025;-72
2023/12/31 00:06:55;;;;;;;2.22;1.63;;;;;;;-146.27;83.53;32374.81;5073614;28;20020;-72
2023/12/31 00:09:20;;;;;;;7.13;1.90;;;;;;;-146.27;83.43;32386.72;5073029;28;20033;-72
2023/12/31 00:11:45;;;;;;;3.40;1.60;;;;;;;-146.27;83.21;32370.84;5071519;28;20027;-72
2023/12/31 00:14:11;;;;;;;2.47;1.73;;;;;;;-146.27;83.10;32406.56;5068220;28;20062;-72
2023/12/31 00:16:36;;;;;;;2.65;1.40;;;;;;;-146.27;83.30;32493.84;5063921;28;20029;-72
2023/12/31 00:19:02;;;;;;;1.95;1.60;;;;;;;-146.27;83.09;32454.16;5067335;28;20025;-73
2023/12/31 00:21:27;;;;;;;1.63;1.45;;;;;;;-146.27;82.81;32406.56;5068887;28;20124;-72
2023/12/31 00:23:52;;;;;;;3.67;1.85;;;;;;;-146.27;83.00;32485.91;5077640;28;20022;-73
2023/12/31 00:26:18;;;;;;;4.05;1.60;;;;;;;-146.27;82.44;32400.63;5069150;28;20032;-71
2023/12/31 00:28:43;;;;;;;3.97;1.38;;;;;;;-146.27;82.01;32370.84;5071134;28;20025;-72
2023/12/31 00:31:08;;;;;;;3.42;1.33;;;;;;;-146.27;81.99;32390.69;5074422;28;20034;-73
2023/12/31 00:33:34;;;;;;;4.35;1.60;;;;;;;-146.27;83.17;32485.91;5073414;28;20088;-72
2023/12/31 00:36:00;;;;;;;1.98;1.40;;;;;;;-146.27;82.50;32454.16;5073468;28;20365;-72
2023/12/31 00:38:26;;;;;;;1.88;1.35;;;;;;;-146.27;82.17;32430.38;5070846;28;20024;-72
2023/12/31 00:40:52;;;;;;;2.42;1.60;;;;;;;-146.27;82.11;32406.56;5075701;28;20047;-72
2023/12/31 00:43:17;;;;;;;1.90;1.38;;;;;;;-146.27;82.50;32474.00;5070628;28;20029;-71
2023/12/31 00:45:43;;;;;;;2.08;1.48;;;;;;;-146.27;82.06;32491.88;5069853;28;20081;-71
2023/12/31 00:48:08;;;;;;;1.13;0.98;;;;;;;-146.27;81.44;32464.09;5072671;28;20651;-72
2023/12/31 00:50:34;;;;;;;3.28;1.23;;;;;;;-146.27;81.59;32450.22;5082813;28;20039;-72
2023/12/31 00:53:01;;;;;;;1.45;1.20;;;;;;;-146.27;80.85;32412.50;5059116;28;20033;-73
2023/12/31 00:55:26;;;;;;;9.20;1.83;;;;;;;-146.27;80.91;32477.97;5068865;28;20499;-72
2023/12/31 00:57:51;;;;;;;3.28;1.20;;;;;;;-146.27;81.16;32476.00;5069924;28;20044;-73
2023/12/31 01:00:18;;;;;;;3.00;1.00;;;;;;;-146.27;80.58;32511.69;5069841;28;20052;-73
2023/12/31 01:02:44;;;;;;;3.05;0.98;;;;;;;-146.27;80.81;32577.16;5069546;28;20117;-72
2023/12/31 01:05:09;;;;;;;3.22;1.10;;;;;;;-146.27;80.63;32519.63;5075648;28;20512;-72
2023/12/31 01:07:34;;;;;;;1.73;0.82;;;;;;;-146.27;79.94;32458.13;5073143;28;20020;-73
2023/12/31 01:10:00;;;;;;;5.18;1.15;;;;;;;-146.27;79.59;32470.03;5069544;28;20028;-73
2023/12/31 01:12:25;;;;;;;3.05;0.95;;;;;;;-146.27;79.30;32470.03;5068138;28;20036;-73
2023/12/31 01:14:50;;;;;;;6.68;1.40;;;;;;;-146.27;79.36;32493.84;5070695;28;20032;-73
2023/12/31 01:17:16;;;;;;;1.80;0.75;;;;;;;-146.27;78.64;32402.59;5062106;28;20039;-72
2023/12/31 01:19:41;;;;;;;2.45;1.05;;;;;;;-146.27;78.40;32434.34;5065180;28;20032;-73
2023/12/31 01:22:06;;;;;;;4.93;1.30;;;;;;;-146.27;78.37;32434.34;5063731;28;20021;-72
2023/12/31 01:24:32;;;;;;;1.08;0.77;;;;;;;-146.27;79.25;32549.38;5067451;28;20107;-71
2023/12/31 01:26:57;;;;;;;3.25;1.20;;;;;;;-146.27;78.93;32501.78;5070244;28;20028;-73
2023/12/31 01:29:23;;;;;;;0.82;0.73;;;;;;;-146.27;78.21;32456.16;5066318;28;20131;-72
2023/12/31 01:31:49;;;;;;;4.20;1.20;;;;;;;-146.27;78.44;32525.59;5060239;28;20089;-72
2023/12/31 01:34:14;;;;;;;1.58;0.90;;;;;;;-146.27;78.33;32450.22;5074357;28;20037;-72
2023/12/31 01:36:40;;;;;;;4.50;1.15;;;;;;;-146.27;77.65;32440.28;5067955;28;20029;-71
2023/12/31 01:39:07;;;;;;;2.72;1.20;;;;;;;-146.27;77.28;32424.41;5056885;28;20032;-72
2023/12/31 01:41:33;;;;;;;3.15;0.95;;;;;;;-146.27;77.32;32468.06;5060177;28;20025;-72
2023/12/31 01:44:03;;;;;;;1.30;1.00;;;;;;;-146.27;77.66;32446.25;5065307;28;20082;-72
2023/12/31 01:46:31;;;;;;;2.42;1.00;;;;;;;-146.27;77.78;32436.31;5064420;28;20089;-72
2023/12/31 01:48:59;;;;;;;2.17;0.90;;;;;;;-146.27;78.16;32549.38;5069138;28;20020;-71
2023/12/31 01:51:26;;;;;;;2.65;0.98;;;;;;;-146.27;77.89;32477.97;5067365;28;20083;-71
2023/12/31 01:53:52;;;;;;;2.80;1.20;;;;;;;-146.27;77.85;32493.84;5066354;28;20115;-72
2023/12/31 01:56:21;;;;;;;2.25;1.20;;;;;;;-146.27;77.54;32497.81;5067871;28;20107;-73
2023/12/31 01:58:48;;;;;;;5.45;1.13;;;;;;;-146.27;77.03;32474.00;5065249;28;20067;-72
2023/12/31 02:01:14;;;;;;;3.05;0.98;;;;;;;-146.27;76.74;32426.41;5067007;28;20039;-73
2023/12/31 02:03:40;;;;;;;5.03;1.05;;;;;;;-146.27;77.34;32491.88;5064867;28;20059;-72
2023/12/31 02:06:06;;;;;;;2.92;0.95;;;;;;;-146.27;76.99;32434.34;5068667;28;20082;-73
2023/12/31 02:08:31;;;;;;;1.42;1.08;;;;;;;-146.27;76.69;32416.47;5056750;28;20111;-72
2023/12/31 02:10:57;;;;;;;2.60;1.10;;;;;;;-146.27;77.17;32468.06;5066678;28;20115;-72
2023/12/31 02:13:22;;;;;;;3.67;1.02;;;;;;;-146.27;77.00;32489.88;5071195;28;20020;-72
2023/12/31 02:15:51;;;;;;;2.50;0.90;;;;;;;-146.27;76.60;32430.38;5069349;28;20067;-72
2023/12/31 02:18:16;;;;;;;1.00;0.85;;;;;;;-146.27;76.33;32422.44;5061894;28;20040;-71
2023/12/31 02:20:44;;;;;;;2.05;1.38;;;;;;;-146.27;76.33;32442.28;5065405;28;20465;-73
2023/12/31 02:23:09;;;;;;;1.38;0.77;;;;;;;-146.27;76.55;32477.97;5067695;28;20017;-72
2023/12/31 02:25:41;;;;;;;2.60;1.00;;;;;;;-146.27;77.17;32555.34;5071672;28;20097;-73
2023/12/31 02:28:13;;;;;;;2.83;1.30;;;;;;;-146.27;76.98;32533.53;5075056;28;20656;-72
2023/12/31 02:30:38;;;;;;;2.05;0.82;;;;;;;-146.27;77.17;32581.13;5068804;28;20051;-71
2023/12/31 02:33:04;;;;;;;2.65;0.93;;;;;;;-146.27;76.69;32481.94;5070948;28;20028;-72
2023/12/31 02:35:29;;;;;;;1.85;0.90;;;;;;;-146.27;76.65;32553.34;5063248;28;20070;-72
2023/12/31 02:37:54;;;;;;;5.85;1.00;;;;;;;-146.27;76.77;32507.72;5071718;28;20110;-74
2023/12/31 02:40:20;;;;;;;2.70;1.00;;;;;;;-146.27;76.45;32515.66;5065782;28;20032;-72
2023/12/31 02:42:46;;;;;;;2.92;1.10;;;;;;;-146.27;76.53;32577.16;5077931;28;20020;-72
2023/12/31 02:45:11;;;;;;;2.55;0.80;;;;;;;-146.27;76.13;32491.88;5069016;28;20165;-71
2023/12/31 02:47:37;;;;;;;1.75;0.98;;;;;;;-146.27;76.27;32523.59;5060271;28;20016;-72
2023/12/31 02:50:03;;;;;;;2.72;1.38;;;;;;;-146.27;77.51;32620.81;5069706;28;20472;-73
2023/12/31 02:52:28;;;;;;;6.13;1.40;;;;;;;-146.27;77.42;32620.81;5068735;28;20676;-72
2023/12/31 02:54:54;;;;;;;1.58;0.88;;;;;;;-146.27;77.22;32589.06;5066726;28;20025;-72
2023/12/31 02:57:19;;;;;;;3.80;1.08;;;;;;;-146.27;77.43;32640.66;5062368;28;20400;-73
2023/12/31 02:59:45;;;;;;;4.25;1.08;;;;;;;-146.27;76.79;32557.31;5065934;28;20055;-73
2023/12/31 03:02:10;;;;;;;3.10;1.05;;;;;;;-146.27;77.37;32676.34;5061631;28;20119;-73
2023/12/31 03:04:40;;;;;;;4.22;1.77;;;;;;;-146.27;77.26;32597.00;5065674;28;20031;-73
2023/12/31 03:07:05;;;;;;;2.25;1.30;;;;;;;-146.27;77.25;32620.81;5062614;28;20032;-73
2023/12/31 03:09:30;;;;;;;3.78;1.05;;;;;;;-146.27;76.99;32539.47;5070042;28;20024;-72
2023/12/31 03:11:56;;;;;;;2.05;1.13;;;;;;;-146.27;77.30;32589.06;5071309;28;20024;-72
2023/12/31 03:14:21;;;;;;;1.55;1.13;;;;;;;-146.27;77.01;32660.47;5068150;28;20083;-72
2023/12/31 03:16:47;;;;;;;2.20;1.27;;;;;;;-146.27;76.94;32577.16;5067354;28;20024;-72
2023/12/31 03:19:13;;;;;;;1.40;1.02;;;;;;;-146.27;77.09;32593.03;5066959;28;20086;-72
2023/12/31 03:21:39;;;;;;;1.30;0.90;;;;;;;-146.27;76.53;32549.38;5059800;28;20471;-72
2023/12/31 03:24:04;;;;;;;0.82;0.73;;;;;;;-146.27;76.49;32587.09;5067141;28;20021;-74
2023/12/31 03:26:30;;;;;;;2.38;1.38;;;;;;;-146.27;76.58;32620.81;5059248;28;20032;-73
2023/12/31 03:28:55;;;;;;;1.40;0.90;;;;;;;-146.27;76.59;32581.13;5067569;28;20055;-72
2023/12/31 03:31:20;;;;;;;3.05;1.10;;;;;;;-146.27;76.79;32648.56;5064968;28;20048;-72
2023/12/31 03:33:46;;;;;;;1.33;0.82;;;;;;;-146.27;76.98;32636.69;5067163;28;20048;-73
2023/12/31 03:36:11;;;;;;;3.15;1.30;;;;;;;-146.27;77.21;32575.19;5065660;28;20029;-72
2023/12/31 03:38:37;;;;;;;3.15;1.58;;;;;;;-146.27;76.91;32565.25;5067030;28;20055;-73
2023/12/31 03:41:03;;;;;;;1.95;1.05;;;;;;;-146.27;76.82;32595.03;5066376;28;20042;-72
2023/12/31 03:43:28;;;;;;;1.98;1.10;;;;;;;-146.27;76.77;32577.16;5068043;28;20090;-73
2023/12/31 03:45:54;;;;;;;4.47;1.20;;;;;;;-146.27;76.78;32600.97;5062880;28;20020;-72
2023/12/31 03:48:19;;;;;;;4.38;1.10;;;;;;;-146.27;76.41;32581.13;5060797;28;20112;-72
2023/12/31 03:50:44;;;;;;;1.42;1.00;;;;;;;-146.27;76.42;32595.03;5061669;28;20032;-73
2023/12/31 03:53:10;;;;;;;1.98;1.40;;;;;;;-146.27;76.74;32628.75;5066202;28;20036;-72
2023/12/31 03:55:35;;;;;;;2.05;1.73;;;;;;;-146.27;77.08;32632.72;5064215;28;20146;-72
2023/12/31 03:58:01;;;;;;;2.22;1.15;;;;;;;-146.27;77.01;32628.75;5065994;28;20483;-72
2023/12/31 04:00:26;;;;;;;2.70;1.40;;;;;;;-146.27;77.15;32606.91;5060677;28;20376;-72
2023/12/31 04:02:52;;;;;;;3.97;1.27;;;;;;;-146.27;77.20;32595.03;5065601;28;20066;-73
2023/12/31 04:05:17;;;;;;;3.03;1.17;;;;;;;-146.27;77.79;32702.13;5064980;28;20098;-73
2023/12/31 04:07:42;;;;;;;3.15;1.13;;;;;;;-146.27;77.40;32664.44;5065486;28;20040;-72
2023/12/31 04:10:08;;;;;;;2.55;1.17;;;;;;;-146.27;77.49;32658.50;5067969;28;20085;-72
2023/12/31 04:12:33;;;;;;;2.22;1.13;;;;;;;-146.27;77.45;32664.44;5072505;28;20020;-72
2023/12/31 04:14:59;;;;;;;2.85;1.08;;;;;;;-146.27;77.21;32561.28;5058579;28;20017;-72
2023/12/31 04:17:24;;;;;;;1.70;0.90;;;;;;;-146.27;77.22;32597.00;5068188;28;20580;-72
2023/12/31 04:19:50;;;;;;;1.55;0.80;;;;;;;-146.27;77.49;32632.72;5064802;28;20154;-72
2023/12/31 04:22:15;;;;;;;2.15;1.23;;;;;;;-146.27;78.12;32690.25;5067936;28;20039;-72
2023/12/31 04:24:40;;;;;;;3.72;1.17;;;;;;;-146.27;77.91;32688.25;5068278;28;20013;-73
2023/12/31 04:27:06;;;;;;;2.47;1.13;;;;;;;-146.27;77.56;32630.72;5067366;28;20089;-72
2023/12/31 04:29:31;;;;;;;3.20;1.60;;;;;;;-146.27;77.92;32690.25;5065829;28;20032;-72
2023/12/31 04:31:56;;;;;;;2.08;1.13;;;;;;;-146.27;78.10;32680.31;5060273;28;20078;-73
2023/12/31 04:34:22;;;;;;;3.05;1.52;;;;;;;-146.27;78.46;32723.97;5058100;28;20028;-74
2023/12/31 04:36:47;;;;;;;4.22;1.48;;;;;;;-146.27;78.38;32710.06;5063651;28;20393;-71
2023/12/31 04:39:13;;;;;;;2.97;1.10;;;;;;;-146.27;78.57;32708.09;5063613;28;20036;-72
2023/12/31 04:41:38;;;;;;;6.50;1.70;;;;;;;-146.27;79.16;32737.84;5066393;28;20021;-73
2023/12/31 04:44:03;;;;;;;2.15;1.20;;;;;;;-146.27;78.46;32737.84;5060999;28;20028;-72
2023/12/31 04:46:29;;;;;;;3.03;1.40;;;;;;;-146.27;78.63;32648.56;5067145;28;20388;-73
2023/12/31 04:48:54;;;;;;;1.92;1.33;;;;;;;-146.27;78.41;32708.09;5065421;28;20036;-73
2023/12/31 04:51:24;;;;;;;1.10;0.98;;;;;;;-146.27;78.28;32723.97;5070757;28;20032;-72
2023/12/31 04:53:49;;;;;;;1.70;1.30;;;;;;;-146.27;78.96;32751.75;5074758;28;20457;-71
2023/12/31 04:56:22;;;;;;;2.25;1.65;;;;;;;-146.27;78.48;32720.00;5066348;28;20025;-73
2023/12/31 04:58:50;;;;;;;1.60;1.20;;;;;;;-146.27;78.88;32745.78;5066174;28;20048;-73
2023/12/31 05:01:15;;;;;;;1.20;1.10;;;;;;;-146.27;78.40;32672.38;5068016;28;20111;-73
2023/12/31 05:03:40;;;;;;;1.95;1.33;;;;;;;-146.27;79.06;32755.69;5057701;28;20103;-73
2023/12/31 05:06:06;;;;;;;3.90;1.40;;;;;;;-146.27;79.30;32731.91;5071880;28;20452;-72
2023/12/31 05:08:32;;;;;;;1.52;1.25;;;;;;;-146.27;79.25;32725.94;5068968;28;20024;-73
2023/12/31 05:10:58;;;;;;;3.47;1.40;;;;;;;-146.27;79.81;32628.75;5067567;28;20115;-73
2023/12/31 05:13:23;;;;;;;4.70;1.20;;;;;;;-146.27;80.30;32775.53;5072551;28;20111;-73
2023/12/31 05:15:48;;;;;;;2.25;1.60;;;;;;;-146.27;80.26;32765.63;5067113;28;20368;-73
2023/12/31 05:18:14;;;;;;;2.33;1.20;;;;;;;-146.27;80.53;32727.94;5066733;28;20020;-73
2023/12/31 05:20:39;;;;;;;1.70;1.30;;;;;;;-146.27;80.52;32737.84;5077735;28;20031;-73
2023/12/31 05:23:04;;;;;;;1.80;1.20;;;;;;;-146.27;80.26;32791.41;5066399;28;20395;-73
2023/12/31 05:25:30;;;;;;;1.73;1.20;;;;;;;-146.27;80.28;32757.69;5070206;28;20058;-72
2023/12/31 05:27:55;;;;;;;2.30;0.95;;;;;;;-146.27;79.88;32765.63;5055663;28;20083;-74
2023/12/31 05:30:22;;;;;;;3.67;1.52;;;;;;;-146.27;79.55;32704.13;5068030;28;20033;-73
2023/12/31 05:32:47;;;;;;;2.83;1.38;;;;;;;-146.27;79.35;32700.16;5068537;28;20021;-73
2023/12/31 05:35:13;;;;;;;1.95;1.50;;;;;;;-146.27;79.44;32769.59;5069125;28;20062;-73
2023/12/31 05:37:38;;;;;;;3.45;1.30;;;;;;;-146.27;79.04;32682.31;5060137;28;20075;-72
2023/12/31 05:40:05;;;;;;;1.75;1.42;;;;;;;-146.27;79.29;32759.66;5066149;28;20028;-72
2023/12/31 05:42:31;;;;;;;1.85;1.60;;;;;;;-146.27;79.25;32680.31;5069507;28;20486;-72
2023/12/31 05:44:57;;;;;;;1.77;1.30;;;;;;;-146.27;78.90;32656.50;5071940;28;20036;-73
2023/12/31 05:47:22;;;;;;;3.83;1.88;;;;;;;-146.27;78.97;32700.16;5061666;28;20071;-73
2023/12/31 05:49:47;;;;;;;1.52;1.42;;;;;;;-146.27;78.65;32664.44;5069439;28;20032;-74
2023/12/31 05:52:13;;;;;;;1.60;1.25;;;;;;;-146.27;78.29;32537.50;5067117;28;20028;-73
2023/12/31 05:54:40;;;;;;;2.20;1.60;;;;;;;-146.27;78.60;32666.44;5069753;28;20059;-72
2023/12/31 05:57:06;;;;;;;3.53;1.50;;;;;;;-146.27;78.27;32644.63;5060605;28;20460;-72
2023/12/31 05:59:31;;;;;;;1.98;1.27;;;;;;;-146.27;77.80;32616.84;5066733;28;20021;-72
2023/12/31 06:01:56;;;;;;;4.47;1.80;;;;;;;-146.27;78.10;32658.50;5069023;28;20028;-72
2023/12/31 06:04:23;;;;;;;2.63;1.35;;;;;;;-146.27;78.49;32668.41;5068919;28;20016;-72
2023/12/31 06:06:48;;;;;;;3.10;1.48;;;;;;;-146.27;78.58;32656.50;5066856;28;20063;-73
2023/12/31 06:09:14;;;;;;;2.03;1.27;;;;;;;-146.27;78.41;32654.53;5067421;28;20060;-72
2023/12/31 06:11:39;;;;;;;1.90;1.33;;;;;;;-146.27;78.01;32628.75;5066457;28;20048;-72
2023/12/31 06:14:04;;;;;;;3.17;1.50;;;;;;;-146.27;78.34;32686.28;5062692;28;20029;-72
2023/12/31 06:16:30;;;;;;;2.78;1.80;;;;;;;-146.27;77.78;32620.81;5061612;28;20035;-72
2023/12/31 06:18:55;;;;;;;4.43;1.65;;;;;;;-146.27;77.96;32614.84;5063874;28;20021;-74
2023/12/31 06:21:20;;;;;;;4.43;1.45;;;;;;;-146.27;77.34;32517.66;5065379;28;20027;-72
2023/12/31 06:23:46;;;;;;;4.13;1.65;;;;;;;-146.27;77.34;32648.56;5058325;28;20123;-73
2023/12/31 06:26:11;;;;;;;2.65;1.60;;;;;;;-146.27;77.24;32577.16;5058354;28;20025;-72
2023/12/31 06:28:37;;;;;;;2.55;1.45;;;;;;;-146.27;77.77;32597.00;5066581;28;20025;-72
2023/12/31 06:31:02;;;;;;;6.80;1.70;;;;;;;-146.27;77.86;32644.63;5074763;28;20498;-72
2023/12/31 06:33:28;;;;;;;3.95;1.60;;;;;;;-146.27;77.68;32620.81;5064780;28;20414;-73
2023/12/31 06:35:53;;;;;;;1.65;1.40;;;;;;;-146.27;76.91;32571.22;5072574;28;20107;-74
2023/12/31 06:38:18;;;;;;;2.40;1.60;;;;;;;-146.27;77.12;32577.16;5065370;28;20107;-71
2023/12/31 06:40:44;;;;;;;2.60;1.70;;;;;;;-146.27;76.93;32545.44;5061272;28;20657;-72
2023/12/31 06:43:10;;;;;;;2.58;1.65;;;;;;;-146.27;76.77;32573.19;5064722;28;20066;-72
2023/12/31 06:45:35;;;;;;;2.08;1.50;;;;;;;-146.27;77.18;32636.69;5073207;28;20107;-72
2023/12/31 06:48:00;;;;;;;1.85;1.52;;;;;;;-146.27;77.26;32624.78;5067354;28;20664;-73
2023/12/31 06:50:26;;;;;;;2.15;1.58;;;;;;;-146.27;77.06;32543.44;5067690;28;20051;-72
2023/12/31 06:52:51;;;;;;;2.60;1.70;;;;;;;-146.27;77.00;32575.19;5056849;28;20396;-73
2023/12/31 06:55:17;;;;;;;4.45;2.08;;;;;;;-146.27;76.58;32553.34;5065239;28;20483;-72
2023/12/31 06:57:42;;;;;;;3.75;1.55;;;;;;;-146.27;76.60;32505.75;5063818;28;20048;-71
2023/12/31 07:00:08;;;;;;;4.85;2.28;;;;;;;-146.27;77.20;32551.38;5064075;28;20116;-72
2023/12/31 07:02:33;;;;;;;2.85;1.95;;;;;;;-146.27;77.90;32577.16;5062756;28;20027;-73
2023/12/31 07:04:59;;;;;;;4.78;1.90;;;;;;;-146.27;77.96;32533.53;5063219;28;20021;-73
2023/12/31 07:07:24;;;;;;;3.33;1.60;;;;;;;-146.27;78.48;32515.66;5067585;28;20306;-73
2023/12/31 07:09:49;;;;;;;3.08;1.90;;;;;;;-146.27;79.87;32624.78;5064369;28;20089;-73
2023/12/31 07:12:15;;;;;;;1.67;1.40;;;;;;;-146.27;79.93;32565.25;5058283;28;20036;-73
2023/12/31 07:14:40;;;;;;;4.10;1.90;;;;;;;-146.27;81.40;32682.31;5058947;28;20231;-73
2023/12/31 07:17:05;;;;;;;2.80;1.75;;;;;;;-146.27;81.55;32660.47;5058340;28;20460;-73
2023/12/31 07:19:31;;;;;;;2.08;1.55;;;;;;;-146.27;81.54;32680.31;5068245;28;20031;-73
2023/12/31 07:21:56;;;;;;;4.25;1.75;;;;;;;-146.27;82.04;32640.66;5069160;28;20029;-73
2023/12/31 07:24:22;;;;;;;2.05;1.60;;;;;;;-146.27;82.39;32642.63;5066239;28;20100;-73
2023/12/31 07:26:47;;;;;;;3.17;1.90;;;;;;;-146.27;82.75;32720.00;5067651;28;20109;-73
2023/12/31 07:29:13;;;;;;;3.33;2.08;;;;;;;-146.27;83.23;32723.97;5066781;28;20029;-73
2023/12/31 07:31:38;;;;;;;2.55;1.80;;;;;;;-146.27;82.93;32664.44;5064572;28;20093;-73
2023/12/31 07:34:04;;;;;;;2.55;1.75;;;;;;;-146.27;83.86;32694.22;5060893;28;20043;-73
2023/12/31 07:36:30;;;;;;;2.47;2.00;;;;;;;-146.27;83.63;32684.28;5063196;28;20021;-73
2023/12/31 07:38:55;;;;;;;3.10;2.05;;;;;;;-146.27;84.61;32779.50;5067547;28;20016;-73
2023/12/31 07:41:21;;;;;;;3.15;1.73;;;;;;;-146.27;84.83;32751.75;5064015;28;20032;-73
2023/12/31 07:43:46;;;;;;;3.88;2.22;;;;;;;-146.27;84.32;32676.34;5069088;28;20249;-73
2023/12/31 07:46:13;;;;;;;4.38;1.88;;;;;;;-146.27;85.37;32727.94;5064300;28;20032;-73
2023/12/31 07:48:39;;;;;;;4.15;2.20;;;;;;;-146.27;85.17;32727.94;5071563;28;20036;-73
2023/12/31 07:51:06;;;;;;;1.83;1.45;;;;;;;-146.27;86.07;32761.66;5064757;28;20135;-72
2023/12/31 07:53:32;;;;;;;5.18;1.80;;;;;;;-146.27;85.76;32729.91;5065312;28;20027;-73
2023/12/31 07:55:58;;;;;;;1.83;1.50;;;;;;;-146.27;85.66;32721.97;5067709;28;20573;-73
2023/12/31 07:58:26;;;;;;;2.53;1.88;;;;;;;-146.27;85.91;32763.63;5056123;28;20411;-73
2023/12/31 08:00:53;;;;;;;2.55;1.90;;;;;;;-146.27;86.40;32761.66;5058081;28;20428;-73
2023/12/31 08:03:18;;;;;;;2.97;1.80;;;;;;;-146.27;87.11;32753.72;5059245;28;20029;-73
2023/12/31 08:05:43;;;;;;;2.92;1.90;;;;;;;-146.27;87.43;32751.75;5054621;28;20045;-73
2023/12/31 08:08:11;;;;;;;6.45;2.20;;;;;;;-146.27;87.67;32791.41;5053834;28;20040;-73
2023/12/31 08:10:40;;;;;;;3.60;1.90;;;;;;;-146.27;88.14;32801.34;5066474;28;20103;-73
2023/12/31 08:13:06;;;;;;;5.13;2.55;;;;;;;-146.27;88.67;32779.50;5062336;28;20032;-73
2023/12/31 08:15:32;;;;;;;3.42;2.78;;;;;;;-146.27;89.23;32815.22;5067726;28;20029;-73
2023/12/31 08:17:57;;;;;;;3.42;2.35;;;;;;;-146.27;89.78;32882.66;5077190;28;20020;-71
2023/12/31 08:20:22;;;;;;;3.35;1.92;;;;;;;-146.27;89.91;32886.63;5060800;28;20020;-72
2023/12/31 08:22:52;;;;;;;5.45;2.45;;;;;;;-146.27;90.14;32898.53;5065914;28;20043;-73
2023/12/31 08:25:18;;;;;;;2.60;1.60;;;;;;;-146.27;90.73;33013.63;5066758;28;20017;-73
2023/12/31 08:27:43;;;;;;;3.13;1.27;;;;;;;-146.27;90.03;33025.50;5072034;28;20031;-73
2023/12/31 08:30:09;;;;;;;2.17;1.00;;;;;;;-146.27;89.24;32971.94;5065740;28;20041;-73
2023/12/31 08:32:34;;;;;;;1.50;0.68;;;;;;;-146.27;88.07;33130.66;5067451;28;20044;-73
2023/12/31 08:35:00;;;;;;;1.85;0.70;;;;;;;-146.27;88.12;33021.53;5063499;28;20131;-73
2023/12/31 08:37:25;;;;;;;3.92;0.80;;;;;;;-146.27;88.59;33106.84;5068565;28;20265;-72
2023/12/31 08:39:50;;;;;;;1.80;1.02;;;;;;;-146.27;88.42;33039.41;5072137;28;20035;-73
2023/12/31 08:42:16;;;;;;;1.17;0.70;;;;;;;-146.27;88.92;33057.25;5080311;28;20024;-73
2023/12/31 08:44:41;;;;;;;3.95;1.00;;;;;;;-146.27;88.64;33047.34;5068658;28;20617;-72
2023/12/31 08:47:06;;;;;;;2.03;1.00;;;;;;;-146.27;88.16;32962.03;5073464;28;20078;-74
2023/12/31 08:49:32;;;;;;;2.40;1.00;;;;;;;-146.27;88.46;33015.59;5070911;28;20472;-73
2023/12/31 08:51:57;;;;;;;5.22;1.20;;;;;;;-146.27;89.78;33116.78;5069555;28;20407;-74
2023/12/31 08:54:22;;;;;;;4.43;0.88;;;;;;;-146.27;88.57;33001.72;5070103;28;20025;-72
2023/12/31 08:56:49;;;;;;;8.75;0.98;;;;;;;-146.27;89.23;33059.25;5070335;28;20024;-75
2023/12/31 08:59:14;;;;;;;2.75;0.90;;;;;;;-146.27;88.13;32966.00;5063800;28;20448;-73
2023/12/31 09:01:40;;;;;;;3.78;0.52;;;;;;;-146.27;88.70;33019.56;5067662;28;20032;-73
2023/12/31 09:04:07;;;;;;;4.13;0.73;;;;;;;-146.27;89.48;33152.50;5069994;28;20103;-74
2023/12/31 09:06:32;;;;;;;2.30;0.90;;;;;;;-146.27;89.20;33071.16;5069922;28;20032;-73
2023/12/31 09:08:57;;;;;;;6.78;0.80;;;;;;;-146.27;89.87;33172.34;5076682;28;20031;-73
2023/12/31 09:11:23;;;;;;;2.70;0.80;;;;;;;-146.27;89.72;33128.69;5072635;28;20033;-71
2023/12/31 09:13:48;;;;;;;8.77;0.90;;;;;;;-146.27;89.86;33132.66;5068123;28;20639;-73
2023/12/31 09:16:13;;;;;;;2.10;0.52;;;;;;;-146.27;89.50;33077.09;5066211;28;20516;-73
2023/12/31 09:18:39;;;;;;;0.60;0.52;;;;;;;-146.27;88.83;32979.88;5071255;28;20063;-73
2023/12/31 09:21:04;;;;;;;3.58;0.75;;;;;;;-146.27;88.80;32981.88;5066853;28;20391;-73
2023/12/31 09:23:29;;;;;;;1.15;0.70;;;;;;;-146.27;89.24;33025.50;5060362;28;20486;-73
2023/12/31 09:25:55;;;;;;;1.90;0.80;;;;;;;-146.27;89.67;33096.94;5084880;28;20024;-73
2023/12/31 09:28:21;;;;;;;1.75;0.68;;;;;;;-146.27;90.06;33092.97;5067423;28;20036;-73
2023/12/31 09:30:46;;;;;;;1.65;0.70;;;;;;;-146.27;89.59;33045.34;5075720;28;20521;-73
2023/12/31 09:33:12;;;;;;;4.45;0.80;;;;;;;-146.27;88.76;32983.84;5067077;28;20515;-74
2023/12/31 09:35:37;;;;;;;2.05;0.93;;;;;;;-146.27;87.93;32878.72;5067991;28;20554;-74
2023/12/31 09:38:02;;;;;;;1.65;0.70;;;;;;;-146.27;87.62;32973.94;5062601;28;20028;-72
2023/12/31 09:40:28;;;;;;;4.55;0.70;;;;;;;-146.27;87.22;32940.22;5071044;28;20033;-72
2023/12/31 09:42:54;;;;;;;1.98;0.75;;;;;;;-146.27;86.72;32981.88;5064500;28;20126;-73
2023/12/31 09:45:21;;;;;;;3.45;1.10;;;;;;;-146.27;85.94;33041.38;5067239;28;20040;-71
2023/12/31 09:47:51;;;;;;;2.00;0.70;;;;;;;-146.27;85.32;32914.41;5070879;28;20024;-73
2023/12/31 09:50:18;;;;;;;2.97;0.60;;;;;;;-146.27;85.04;32846.97;5067573;28;20028;-71
2023/12/31 09:52:47;;;;;;;7.03;0.73;;;;;;;-146.27;85.32;32910.44;5063651;28;20380;-74
2023/12/31 09:55:15;;;;;;;4.07;1.42;;;;;;;-146.27;84.35;32890.59;5064545;28;20036;-72
2023/12/31 09:57:42;;;;;;;4.35;1.80;;;;;;;-146.27;84.50;32850.94;5064937;28;20067;-72
2023/12/31 10:00:09;;;;;;;2.05;0.60;;;;;;;-146.27;84.40;32964.00;5066494;28;20024;-72
2023/12/31 10:02:34;;;;;;;1.65;0.90;;;;;;;-146.27;83.56;32846.97;5066849;28;20029;-73
2023/12/31 10:05:00;;;;;;;3.50;1.05;;;;;;;-146.27;83.97;32854.91;5067732;28;20051;-73
2023/12/31 10:07:26;;;;;;;1.92;0.50;;;;;;;-146.27;84.31;32940.22;5068017;28;20393;-73
2023/12/31 10:09:54;;;;;;;2.42;0.75;;;;;;;-146.27;84.17;32799.34;5070022;28;20031;-73
2023/12/31 10:12:20;;;;;;;1.65;0.70;;;;;;;-146.27;84.37;32858.88;5070537;28;20491;-72
2023/12/31 10:14:46;;;;;;;2.67;0.60;;;;;;;-146.27;84.99;32815.22;5069733;28;20120;-73
2023/12/31 10:17:11;;;;;;;2.05;0.52;;;;;;;-146.27;85.29;32914.41;5066164;28;20519;-75
2023/12/31 10:19:39;;;;;;;3.28;0.88;;;;;;;-146.27;85.82;32882.66;5070129;28;20028;-73
2023/12/31 10:22:05;;;;;;;2.97;0.75;;;;;;;-146.27;87.49;32989.81;5086187;28;20059;-72
2023/12/31 10:24:31;;;;;;;4.40;0.80;;;;;;;-146.27;88.27;32954.09;5070232;28;20068;-73
2023/12/31 10:26:57;;;;;;;2.90;0.82;;;;;;;-146.27;88.73;32916.41;5067402;28;20020;-74
2023/12/31 10:29:25;;;;;;;4.43;0.85;;;;;;;-146.27;88.54;32900.53;5076207;28;20028;-75
2023/12/31 10:31:52;;;;;;;1.63;0.82;;;;;;;-146.27;89.02;32962.03;5074348;28;20024;-73
2023/12/31 10:34:18;;;;;;;1.42;0.80;;;;;;;-146.27;88.89;32989.81;5064565;28;20111;-74
2023/12/31 10:36:45;;;;;;;4.57;1.13;;;;;;;-146.27;88.42;32969.97;5067304;28;20183;-74
2023/12/31 10:39:26;;;;;;;5.53;0.82;;;;;;;-146.27;90.14;33083.06;5067534;28;20480;-72
2023/12/31 10:41:57;;;;;;;1.38;0.70;;;;;;;-146.27;89.33;33015.59;5063304;28;20468;-73
2023/12/31 10:44:24;;;;;;;5.10;1.25;;;;;;;-146.27;88.54;32950.13;5063440;28;20025;-73
2023/12/31 10:46:52;;;;;;;1.75;0.93;;;;;;;-146.27;89.13;33009.66;5065314;28;20039;-74
2023/12/31 10:49:21;;;;;;;1.25;1.00;;;;;;;-146.27;88.97;32985.84;5066337;28;20031;-73
2023/12/31 10:51:51;;;;;;;3.10;0.82;;;;;;;-146.27;89.02;32973.94;5068859;28;20391;-74
2023/12/31 10:54:26;;;;;;;3.90;1.17;;;;;;;-146.27;88.44;32932.28;5065038;28;20043;-73
2023/12/31 10:56:53;;;;;;;3.58;1.40;;;;;;;-146.27;89.25;33057.25;5065212;28;20031;-73
2023/12/31 10:59:19;;;;;;;3.67;1.15;;;;;;;-146.27;88.92;33051.31;5061165;28;20032;-72
2023/12/31 11:01:46;;;;;;;2.03;1.00;;;;;;;-146.27;89.54;33114.78;5066278;28;20034;-73
2023/12/31 11:04:14;;;;;;;5.43;1.98;;;;;;;-146.27;89.93;33198.13;5067336;28;20445;-72
2023/12/31 11:06:42;;;;;;;1.75;0.80;;;;;;;-146.27;88.60;33085.03;5072177;28;20099;-74
2023/12/31 11:09:08;;;;;;;3.08;0.80;;;;;;;-146.27;88.99;33263.59;5065104;28;20039;-73
2023/12/31 11:11:33;;;;;;;3.00;0.77;;;;;;;-146.27;88.50;33156.47;5078759;28;20031;-73